This is the latest recevied weather packets stored in our database for station/object KD2SIG. If no packets are shown the sender has not sent any weather packets the latest 10 day(s).
| Time | Temp. | Humidity | Pressure | Rain* | Wind** | Luminosity | Snow |
|---|---|---|---|---|---|---|---|
| 1777956917 | 11.11° C | 75% | 1002.9 hPa | 0 mm | - | 0 W/m² | - |
| 1777956615 | 11.67° C | 73% | 1003.2 hPa | 0 mm | - | 0 W/m² | - |
| 1777956312 | 11.67° C | 73% | 1003.3 hPa | 0 mm | - | 0 W/m² | - |
| 1777956009 | 11.11° C | 74% | 1003.2 hPa | 0 mm | - | 0 W/m² | - |
| 1777955705 | 11.11° C | 75% | 1003.3 hPa | 0 mm | - | 0 W/m² | - |
| 1777955402 | 11.11° C | 75% | 1003.5 hPa | 0 mm | - | 0 W/m² | - |
| 1777955097 | 11.67° C | 75% | 1003.2 hPa | 0 mm | - | 0 W/m² | - |
| 1777954795 | 11.67° C | 74% | 1003.3 hPa | 0 mm | - | 0 W/m² | - |
| 1777954491 | 11.67° C | 74% | 1003.3 hPa | 0 mm | - | 0 W/m² | - |
| 1777954189 | 11.67° C | 73% | 1003.4 hPa | 0 mm | - | 0 W/m² | - |
| 1777953886 | 11.67° C | 72% | 1003.3 hPa | 0 mm | - | 0 W/m² | - |
| 1777953583 | 12.22° C | 71% | 1003.4 hPa | 0 mm | - | 0 W/m² | - |
| 1777953279 | 12.22° C | 70% | 1003.3 hPa | 0 mm | - | 0 W/m² | - |
| 1777952976 | 12.78° C | 71% | 1003.2 hPa | 0 mm | - | 0 W/m² | - |
| 1777952673 | 12.78° C | 70% | 1003.1 hPa | 0 mm | - | 0 W/m² | - |
| 1777952370 | 12.78° C | 71% | 1003.2 hPa | 0 mm | - | 0 W/m² | - |
| 1777952066 | 12.78° C | 72% | 1003.3 hPa | 0 mm | - | 0 W/m² | - |
| 1777951765 | 12.78° C | 73% | 1003.4 hPa | 0 mm | - | 0 W/m² | - |
| 1777951462 | 12.22° C | 74% | 1003.3 hPa | 0 mm | - | 0 W/m² | - |
| 1777951158 | 12.22° C | 75% | 1003.3 hPa | 0 mm | - | 0 W/m² | - |
| 1777950855 | 11.67° C | 77% | 1003.5 hPa | 0 mm | - | 0 W/m² | - |
| 1777950552 | 11.67° C | 80% | 1003.2 hPa | 0 mm | - | 0 W/m² | - |
| 1777950248 | 10.56° C | 83% | 1003.6 hPa | 0 mm | - | 0 W/m² | - |
| 1777949943 | 10.56° C | 83% | 1003.5 hPa | 0 mm | - | 0 W/m² | - |
| 1777949641 | 10.56° C | 82% | 1003.7 hPa | 0 mm | - | 0 W/m² | - |
* Rain latest hour (hover to see other rain measurements)
** Current wind speed in m/s (hover to see current wind gust speed)